Skip Navigation LinksHome page > Weather > Current weather Skip Navigation Links

Current Weather

Indira Gandhi Intl Apt, New Delhi, India

For information only: do not use for flight planning or navigation.
Latest weather
Observation time Tuesday, November 25, 2014 6:30 AM IST
Local time Tuesday, November 25, 2014 6:54 AM IST
Flight conditions Instrument Meteorological Conditions
Winds
Wind speed calm
Visibility 1.3 mi.
Present weather smoke
Sky condition
Ceiling unlimited
Temperature 52°F
Dewpoint 43°F
Altimeter 30.03 in.Hg
Derived measurements
Relative humidity 71%
Density altitude 296 ft.
Remarks
No significant changes expected in the next two hours.
METAR VIDP 250100Z 00000KT 2100 FU NSC 11/06 Q1017 NOSIG

Settings

Location code

InnerDrive.Weather 4.0.5399.0 Release CLR 4.0.30319.34014
Copyright ©2014 Inner Drive Technology. All rights reserved. Portions Copyright ©1986-2014 David Braverman.

Find weather

Site navigation


Skip Navigation Links

Place info

Page info

PayPal - The safer, easier way to pay online!

Return home.

Copyright ©2014 Inner Drive Technology. Purveyors of fine, hand-crafted computer software. Page printed 2014-11-25T01:24:52 UTC.